0PA6 weather

Hostetler Airport
Huntingdon, Pennsylvania, United States

Public forecast

Using degrees Fahrenheit for public forecast. Weather courtesy of forecast.io.

Closest aviation weather report (METAR) to Hostetler Airport

Closest report is University Park Airport, 13.1 nm (24.3 km) N. Retrieved 2020/06/03 23:53 UTC (1 hour ago):

KUNV 032353Z 28004KT 10SM SCT060 24/18 A2973

Closest aviation forecast (TAF) to Hostetler Airport

Closest forecast is University Park Airport, 13.1 nm (24.3 km) N. Retrieved 2020-06-04 00:48 UTC (7 minutes ago):

TAF KUNV 032345Z 0400/0424 26011G18KT P6SM SCT060 BKN120 FM040100 26004KT P6SM BKN120 FM041800 21005KT P6SM VCTS OVC050CB FM042200 22003KT P6SM VCSH BKN050